Time;durP1;ratioP1;P1;durP2;ratioP2;P2;SDS_P1;SDS_P2;PMS_P1;PMS_P2;Temp;Humidity;BMP_temperature;BMP_pressure;BME280_temperature;BME280_humidity;BME280_pressure;Samples;Min_cycle;Max_cycle;Signal;HPM_P1;HPM_P2
2021/07/27 00:01:27;;;;;;;4.68;3.70;;;;;;;18.34;51.19;100957.22;5001383;28;20105;-69
2021/07/27 00:03:52;;;;;;;8.27;4.63;;;;;;;18.32;51.05;100952.97;5001579;28;20065;-68
2021/07/27 00:06:18;;;;;;;4.82;4.32;;;;;;;18.25;51.42;100949.91;5002704;28;20085;-67
2021/07/27 00:08:43;;;;;;;3.42;3.13;;;;;;;18.22;51.58;100942.22;5000010;28;20502;-67
2021/07/27 00:11:10;;;;;;;6.97;4.30;;;;;;;18.25;51.65;100944.63;5001139;28;20037;-67
2021/07/27 00:13:37;;;;;;;6.13;4.82;;;;;;;18.21;51.46;100951.13;4998434;28;20026;-67
2021/07/27 00:16:04;;;;;;;6.45;3.97;;;;;;;18.27;51.00;100948.00;5002583;28;20026;-67
2021/07/27 00:18:30;;;;;;;4.82;3.40;;;;;;;18.30;50.92;100950.47;5001444;28;20507;-68
2021/07/27 00:20:57;;;;;;;5.07;3.97;;;;;;;18.35;50.49;100956.25;4997275;28;20555;-67
2021/07/27 00:23:22;;;;;;;5.70;4.30;;;;;;;18.33;50.63;100947.59;5001870;28;20269;-67
2021/07/27 00:25:49;;;;;;;4.43;3.38;;;;;;;18.37;50.80;100938.47;5018624;28;20491;-67
2021/07/27 00:28:14;;;;;;;8.82;5.50;;;;;;;18.33;50.44;100937.00;5001943;28;20421;-67
2021/07/27 00:30:40;;;;;;;4.15;3.47;;;;;;;18.37;50.58;100937.63;4998350;28;20388;-68
2021/07/27 00:33:06;;;;;;;4.20;3.58;;;;;;;18.24;50.98;100942.94;4996503;28;20034;-66
2021/07/27 00:35:32;;;;;;;4.30;3.13;;;;;;;18.22;50.79;100934.28;4995685;28;20565;-67
2021/07/27 00:38:08;;;;;;;5.55;4.03;;;;;;;18.29;50.50;100943.47;4997035;28;20426;-67
2021/07/27 00:40:38;;;;;;;4.38;3.80;;;;;;;18.38;50.28;100939.31;4996081;28;20116;-66
2021/07/27 00:43:11;;;;;;;3.55;2.92;;;;;;;18.44;50.16;100945.00;5002198;28;20033;-67
2021/07/27 00:45:37;;;;;;;6.10;4.20;;;;;;;18.36;50.17;100936.75;5002752;28;20456;-66
2021/07/27 00:48:03;;;;;;;6.90;4.90;;;;;;;18.39;50.01;100936.56;5005668;28;20060;-67
2021/07/27 00:50:29;;;;;;;7.00;4.50;;;;;;;18.56;49.73;100937.97;5007829;28;20601;-67
2021/07/27 00:52:57;;;;;;;6.47;3.63;;;;;;;18.54;49.50;100946.97;5002994;28;20112;-67
2021/07/27 00:55:25;;;;;;;4.82;4.38;;;;;;;18.56;49.48;100948.56;5002880;28;20030;-66
2021/07/27 00:57:51;;;;;;;6.28;4.80;;;;;;;18.54;49.48;100944.34;5012969;28;20041;-68
2021/07/27 01:00:16;;;;;;;5.53;5.03;;;;;;;18.53;49.70;100943.50;5013640;28;20038;-68
2021/07/27 01:02:43;;;;;;;8.35;5.40;;;;;;;18.44;50.12;100942.34;5006846;28;20034;-68
2021/07/27 01:05:12;;;;;;;5.65;4.28;;;;;;;18.43;50.13;100943.31;5015035;28;20036;-71
2021/07/27 01:07:38;;;;;;;5.43;4.93;;;;;;;18.44;49.75;100945.00;5008551;28;20038;-68
2021/07/27 01:10:06;;;;;;;7.70;5.28;;;;;;;18.27;50.22;100942.72;5015563;28;20038;-68
2021/07/27 01:12:32;;;;;;;8.48;6.25;;;;;;;18.25;50.43;100952.56;5003420;28;20030;-69
2021/07/27 01:15:03;;;;;;;7.43;5.63;;;;;;;18.30;50.17;100947.81;5013208;28;20037;-68
2021/07/27 01:17:29;;;;;;;8.45;6.25;;;;;;;18.27;50.34;100942.72;5002843;28;20025;-68
2021/07/27 01:43:47;;;;;;;10.35;7.53;;;;;;;17.97;51.19;100951.84;5007066;28;20042;-68
2021/07/27 01:46:15;;;;;;;8.73;7.15;;;;;;;17.83;51.15;100947.53;5004484;28;20037;-68
2021/07/27 01:48:40;;;;;;;12.18;8.13;;;;;;;17.61;52.06;100947.34;5001386;28;20467;-68
2021/07/27 01:51:06;;;;;;;12.77;8.15;;;;;;;17.59;51.99;100946.59;5015456;28;20458;-68
2021/07/27 01:53:36;;;;;;;10.18;7.53;;;;;;;17.77;51.47;100939.19;5007434;28;20026;-67
2021/07/27 01:56:02;;;;;;;12.43;8.18;;;;;;;17.76;51.40;100937.47;5004322;28;20033;-67
2021/07/27 01:58:27;;;;;;;11.50;7.03;;;;;;;17.71;51.39;100934.31;4999898;28;20113;-70
2021/07/27 02:00:53;;;;;;;10.35;7.65;;;;;;;17.72;51.11;100938.66;5003865;28;20033;-68
2021/07/27 02:03:19;;;;;;;11.27;7.82;;;;;;;17.68;51.83;100935.38;5013294;28;20037;-70
2021/07/27 02:05:44;;;;;;;14.40;8.90;;;;;;;17.71;51.73;100929.88;5009527;28;20025;-69
2021/07/27 02:08:10;;;;;;;15.10;8.98;;;;;;;17.68;51.71;100935.38;5007643;28;20072;-69
2021/07/27 02:10:36;;;;;;;12.85;9.13;;;;;;;17.32;52.52;100944.00;5027116;23;20415;-70
2021/07/27 02:13:15;;;;;;;12.98;9.13;;;;;;;17.59;52.04;100941.31;5014831;28;20029;-69
2021/07/27 02:15:44;;;;;;;13.02;9.20;;;;;;;17.60;51.49;100948.28;5030761;28;20375;-70
2021/07/27 02:18:12;;;;;;;14.70;9.55;;;;;;;17.72;51.38;100943.97;5014886;28;20033;-70
2021/07/27 02:20:38;;;;;;;14.65;9.15;;;;;;;17.75;51.28;100938.44;5015022;28;20287;-72
2021/07/27 02:23:04;;;;;;;11.77;8.65;;;;;;;17.78;51.21;100943.50;5012901;28;20322;-72
2021/07/27 02:25:30;;;;;;;17.08;10.48;;;;;;;17.75;51.20;100949.03;5015725;28;20640;-72
2021/07/27 02:27:59;;;;;;;16.20;10.68;;;;;;;17.64;51.46;100947.13;5018191;28;20037;-72
2021/07/27 02:30:24;;;;;;;14.98;10.13;;;;;;;17.59;51.71;100943.94;5012684;28;20049;-71
2021/07/27 02:32:50;;;;;;;17.55;10.45;;;;;;;17.62;51.94;100947.22;5012226;28;20471;-72
2021/07/27 02:35:15;;;;;;;20.08;11.95;;;;;;;17.61;51.75;100942.88;5016325;28;20069;-71
2021/07/27 02:37:41;;;;;;;24.75;12.95;;;;;;;17.28;52.76;100940.72;5015475;28;20407;-70
2021/07/27 02:40:11;;;;;;;20.95;12.52;;;;;;;17.30;52.51;100940.63;5012754;28;20033;-65
2021/07/27 02:42:36;;;;;;;24.20;14.00;;;;;;;17.05;53.45;100942.25;5018234;28;20051;-68
2021/07/27 02:45:04;;;;;;;26.73;13.38;;;;;;;17.35;52.74;100939.34;5013331;28;20045;-68
2021/07/27 02:47:29;;;;;;;23.85;14.35;;;;;;;16.77;54.16;100946.69;5013602;28;20044;-72
2021/07/27 02:49:57;;;;;;;25.58;15.85;;;;;;;17.10;53.89;100937.50;5014387;28;20033;-70
2021/07/27 02:52:23;;;;;;;34.65;16.77;;;;;;;16.82;54.12;100931.44;5015169;28;20033;-69
2021/07/27 02:54:48;;;;;;;28.95;17.17;;;;;;;17.02;53.99;100926.59;5016281;28;20033;-67
2021/07/27 02:57:17;;;;;;;29.52;17.48;;;;;;;17.06;53.79;100932.53;5013024;28;20147;-68
2021/07/27 02:59:45;;;;;;;34.20;18.92;;;;;;;17.24;53.22;100932.13;5012332;28;20371;-67
2021/07/27 03:02:10;;;;;;;31.98;19.88;;;;;;;16.98;54.28;100927.78;5028950;28;20042;-67
2021/07/27 03:04:38;;;;;;;33.10;19.30;;;;;;;17.20;53.80;100930.69;5011402;28;20034;-67
2021/07/27 03:07:05;;;;;;;33.45;18.83;;;;;;;17.18;53.62;100929.06;5012074;28;20057;-67
2021/07/27 03:09:32;;;;;;;34.38;18.55;;;;;;;17.10;54.06;100926.94;5011392;28;20034;-67
2021/07/27 03:11:58;;;;;;;35.40;18.23;;;;;;;16.85;54.60;100918.97;5012167;28;20037;-68
2021/07/27 03:14:26;;;;;;;33.42;19.85;;;;;;;16.44;55.82;100919.84;5012774;28;20273;-66
2021/07/27 03:16:55;;;;;;;36.97;20.33;;;;;;;16.61;55.12;100916.97;5020775;28;20333;-69
2021/07/27 03:19:20;;;;;;;36.08;20.13;;;;;;;16.35;55.80;100922.13;5013326;28;20029;-69
2021/07/27 03:21:46;;;;;;;35.13;20.52;;;;;;;16.25;56.33;100928.91;5028584;28;20041;-69
2021/07/27 03:24:11;;;;;;;36.28;20.38;;;;;;;16.96;54.42;100927.03;5013139;28;20273;-70
2021/07/27 03:26:37;;;;;;;39.10;21.52;;;;;;;16.61;55.27;100924.88;5021497;28;20025;-69
2021/07/27 03:29:05;;;;;;;41.03;22.25;;;;;;;16.47;55.26;100930.22;5011200;28;20048;-70
2021/07/27 03:31:31;;;;;;;34.00;20.58;;;;;;;16.55;55.46;100934.00;5012263;28;20026;-68
2021/07/27 03:33:57;;;;;;;43.22;21.05;;;;;;;16.74;54.95;100927.56;5014773;28;20376;-67
2021/07/27 03:36:23;;;;;;;44.20;22.58;;;;;;;16.30;56.23;100926.84;5015443;28;20037;-67
2021/07/27 03:38:49;;;;;;;39.92;20.30;;;;;;;16.65;55.33;100926.38;5005186;28;20066;-68
2021/07/27 03:41:15;;;;;;;41.88;22.60;;;;;;;16.80;55.44;100933.31;5011647;28;20237;-67
2021/07/27 03:43:43;;;;;;;39.72;22.55;;;;;;;16.90;54.67;100930.91;5015084;28;20410;-67
2021/07/27 03:46:10;;;;;;;42.10;20.88;;;;;;;16.37;55.91;100924.66;5013748;28;20049;-69
2021/07/27 03:48:36;;;;;;;41.80;21.17;;;;;;;16.98;54.29;100930.44;5010815;28;20044;-67
2021/07/27 03:51:01;;;;;;;36.92;20.80;;;;;;;17.10;54.01;100934.03;5010877;28;20033;-66
2021/07/27 03:53:27;;;;;;;36.90;21.13;;;;;;;17.19;53.57;100928.13;5011702;28;20472;-68
2021/07/27 03:55:53;;;;;;;43.95;22.15;;;;;;;17.24;53.22;100926.84;5027478;28;20038;-66
2021/07/27 03:58:19;;;;;;;39.95;20.60;;;;;;;17.35;53.58;100926.13;5011445;28;20040;-69
2021/07/27 04:00:48;;;;;;;36.95;20.38;;;;;;;17.01;53.90;100919.66;5013931;28;20044;-69
2021/07/27 04:03:15;;;;;;;39.80;21.42;;;;;;;16.65;55.01;100923.72;5016305;28;20033;-69
2021/07/27 04:05:43;;;;;;;40.55;21.38;;;;;;;16.89;54.34;100931.00;5017298;28;20041;-70
2021/07/27 04:08:08;;;;;;;37.58;21.30;;;;;;;16.51;55.10;100927.28;4997051;28;20053;-70
2021/07/27 04:10:34;;;;;;;39.78;20.88;;;;;;;16.74;54.42;100928.41;5011032;28;20064;-70
2021/07/27 04:12:59;;;;;;;35.70;20.00;;;;;;;17.10;54.08;100929.59;5011683;28;20079;-70
2021/07/27 04:15:28;;;;;;;39.65;20.33;;;;;;;17.10;53.56;100928.75;5012266;28;20495;-72
2021/07/27 04:17:55;;;;;;;33.03;19.98;;;;;;;17.17;53.07;100933.50;5012395;28;20049;-71
2021/07/27 04:20:21;;;;;;;36.67;19.25;;;;;;;16.85;53.66;100924.25;5011368;28;20030;-71
2021/07/27 04:22:49;;;;;;;35.08;19.67;;;;;;;17.12;53.10;100930.34;5020972;28;20407;-71
2021/07/27 04:25:15;;;;;;;45.08;21.38;;;;;;;16.56;55.35;100934.88;5015309;28;20372;-71
2021/07/27 04:27:40;;;;;;;37.25;19.70;;;;;;;16.88;54.14;100934.59;5014971;28;20037;-71
2021/07/27 04:30:07;;;;;;;34.72;20.83;;;;;;;16.17;55.92;100928.56;5018091;28;20496;-69
2021/07/27 04:32:32;;;;;;;37.83;20.38;;;;;;;16.65;54.79;100931.66;5014367;28;20124;-70
2021/07/27 04:34:58;;;;;;;37.55;19.42;;;;;;;16.73;54.55;100928.50;5012096;28;20145;-71
2021/07/27 04:37:23;;;;;;;36.42;19.85;;;;;;;17.24;53.40;100926.84;5015487;28;20041;-72
2021/07/27 04:39:52;;;;;;;44.45;22.27;;;;;;;17.43;53.00;100926.47;5016715;28;20457;-71
2021/07/27 04:42:17;;;;;;;36.88;19.40;;;;;;;17.68;52.53;100929.25;5013831;28;20470;-71
2021/07/27 04:44:43;;;;;;;36.95;19.75;;;;;;;17.31;53.33;100926.44;5014766;28;20044;-71
2021/07/27 04:47:08;;;;;;;37.35;20.17;;;;;;;17.20;53.31;100928.03;5016832;28;20296;-72
2021/07/27 04:49:34;;;;;;;38.00;21.08;;;;;;;17.21;53.22;100923.59;5017326;28;20048;-73
2021/07/27 04:51:59;;;;;;;35.42;18.85;;;;;;;16.92;53.84;100923.75;5015116;28;20029;-71
2021/07/27 04:54:28;;;;;;;36.08;18.88;;;;;;;17.60;52.22;100922.72;5013677;28;20541;-71
2021/07/27 04:56:53;;;;;;;35.78;19.30;;;;;;;17.88;51.51;100925.22;5016608;28;20045;-72
2021/07/27 04:59:21;;;;;;;36.88;18.45;;;;;;;18.07;50.85;100917.66;5016998;28;20037;-72
2021/07/27 05:01:47;;;;;;;35.60;19.02;;;;;;;18.07;50.60;100909.72;5013893;28;20026;-72
2021/07/27 05:04:12;;;;;;;30.80;17.40;;;;;;;18.05;50.84;100915.16;5013611;28;20490;-71
2021/07/27 05:06:40;;;;;;;37.33;19.80;;;;;;;17.50;52.06;100911.06;5015779;28;20052;-71
2021/07/27 05:09:05;;;;;;;36.70;19.55;;;;;;;17.76;51.57;100911.91;5016619;28;20133;-71
2021/07/27 05:11:31;;;;;;;32.80;17.52;;;;;;;17.92;51.58;100916.13;5000017;28;20108;-72
2021/07/27 05:13:56;;;;;;;41.30;20.23;;;;;;;18.48;50.25;100914.72;4998460;28;20633;-71
2021/07/27 05:16:24;;;;;;;35.55;19.85;;;;;;;18.79;49.46;100915.09;5015676;28;20090;-71
2021/07/27 05:18:50;;;;;;;36.80;19.08;;;;;;;19.41;48.63;100913.13;5017816;28;20025;-70
2021/07/27 05:21:20;;;;;;;35.80;18.83;;;;;;;19.32;47.90;100905.91;5017562;28;20017;-72
2021/07/27 05:23:45;;;;;;;34.25;19.92;;;;;;;18.31;49.92;100901.88;5014708;28;20034;-72
2021/07/27 05:26:11;;;;;;;34.85;18.63;;;;;;;18.53;49.82;100903.78;5011780;28;20305;-72
2021/07/27 05:28:36;;;;;;;28.73;17.00;;;;;;;18.74;49.49;100900.50;5016145;28;20191;-70
2021/07/27 05:31:05;;;;;;;29.00;17.63;;;;;;;18.51;49.31;100910.16;5016561;28;20045;-69
2021/07/27 05:33:32;;;;;;;35.55;18.00;;;;;;;18.41;49.87;100918.78;5016334;28;20022;-69
2021/07/27 05:36:00;;;;;;;30.13;17.25;;;;;;;19.14;48.68;100910.78;5013699;28;20403;-70
2021/07/27 05:38:26;;;;;;;33.67;17.13;;;;;;;19.14;48.20;100918.75;5015484;28;20037;-70
2021/07/27 05:40:53;;;;;;;32.42;18.00;;;;;;;18.62;49.86;100926.94;5015737;28;20033;-70
2021/07/27 05:43:18;;;;;;;26.95;17.02;;;;;;;19.22;48.92;100921.66;5015741;28;20034;-70
2021/07/27 05:45:43;;;;;;;25.88;14.48;;;;;;;19.34;48.50;100920.72;5013115;28;20410;-70
2021/07/27 05:48:09;;;;;;;25.95;14.65;;;;;;;19.51;48.38;100922.91;5031248;28;20046;-68
2021/07/27 05:50:35;;;;;;;27.77;15.98;;;;;;;19.24;49.00;100923.22;5017189;28;20102;-71
2021/07/27 05:53:01;;;;;;;24.77;14.23;;;;;;;19.69;47.54;100927.78;5011982;28;20049;-70
2021/07/27 05:55:26;;;;;;;24.75;13.50;;;;;;;19.88;46.05;100933.34;5017199;28;20025;-71
2021/07/27 05:57:52;;;;;;;24.20;15.40;;;;;;;20.18;46.33;100928.38;5014336;28;20037;-70
2021/07/27 06:00:18;;;;;;;22.88;14.05;;;;;;;18.51;49.37;100931.34;5014532;28;20034;-71
2021/07/27 06:02:43;;;;;;;24.50;14.93;;;;;;;18.69;49.56;100929.97;5021085;28;20620;-69
2021/07/27 06:05:09;;;;;;;26.65;14.43;;;;;;;18.35;50.18;100929.78;5016571;28;20049;-69
2021/07/27 06:07:35;;;;;;;24.92;14.43;;;;;;;17.69;51.71;100936.22;5013156;28;20034;-69
2021/07/27 06:10:00;;;;;;;24.67;14.38;;;;;;;18.14;51.18;100934.81;5013187;28;20438;-72
2021/07/27 06:12:26;;;;;;;27.83;15.73;;;;;;;17.91;52.00;100936.41;5013930;28;20061;-70
2021/07/27 06:14:51;;;;;;;27.95;13.60;;;;;;;18.14;51.06;100936.59;5018234;28;20025;-70
2021/07/27 06:17:19;;;;;;;24.70;13.70;;;;;;;18.81;49.94;100931.72;5017227;28;20033;-68
2021/07/27 06:19:45;;;;;;;25.67;12.63;;;;;;;17.99;50.67;100935.88;5011272;28;20030;-68
2021/07/27 06:22:10;;;;;;;25.58;13.45;;;;;;;18.71;49.00;100935.16;5017725;28;20508;-68
2021/07/27 06:24:36;;;;;;;25.35;13.60;;;;;;;17.98;50.90;100940.34;5014458;28;20144;-68
2021/07/27 06:27:01;;;;;;;24.77;13.10;;;;;;;18.04;50.97;100941.69;5018016;28;20029;-68
2021/07/27 06:29:29;;;;;;;23.98;13.95;;;;;;;18.12;51.31;100935.84;5014625;28;20033;-68
2021/07/27 06:31:57;;;;;;;20.02;12.75;;;;;;;19.12;49.82;100940.03;5016264;28;20096;-73
2021/07/27 06:34:23;;;;;;;24.23;13.52;;;;;;;20.09;46.98;100946.69;5014233;28;20418;-71
2021/07/27 06:36:51;;;;;;;25.98;13.15;;;;;;;19.84;46.54;100946.97;5015798;28;20037;-69
2021/07/27 06:39:17;;;;;;;24.48;12.63;;;;;;;18.67;49.90;100947.78;5016061;28;20109;-68
2021/07/27 06:41:43;;;;;;;18.77;11.50;;;;;;;19.59;47.13;100945.34;5015013;28;20715;-69
2021/07/27 06:44:08;;;;;;;19.77;10.68;;;;;;;19.70;46.58;100946.25;5008053;28;20116;-68
2021/07/27 06:46:34;;;;;;;25.73;12.52;;;;;;;20.61;44.47;100943.50;5014242;28;20048;-67
2021/07/27 06:48:59;;;;;;;19.48;11.13;;;;;;;20.85;44.32;100941.50;5011969;28;20041;-68
2021/07/27 06:51:25;;;;;;;20.45;11.02;;;;;;;22.32;41.86;100940.53;5012828;28;20145;-68
2021/07/27 06:53:51;;;;;;;19.52;11.32;;;;;;;24.13;36.81;100949.59;5012382;28;20037;-70
2021/07/27 06:56:16;;;;;;;19.05;10.27;;;;;;;22.43;39.11;100945.72;5012071;28;20072;-69
2021/07/27 06:58:42;;;;;;;13.63;9.25;;;;;;;23.55;37.80;100940.81;5020986;28;20113;-70
2021/07/27 07:01:11;;;;;;;16.92;10.05;;;;;;;22.78;38.88;100949.69;5011734;28;20515;-69
2021/07/27 07:03:43;;;;;;;18.48;9.15;;;;;;;23.76;37.57;100951.25;5012889;28;20491;-69
2021/07/27 07:06:11;;;;;;;14.95;9.45;;;;;;;24.97;35.71;100954.69;5011350;28;20059;-70
2021/07/27 07:08:37;;;;;;;21.55;9.90;;;;;;;23.73;36.64;100946.22;5014393;28;20060;-68
2021/07/27 07:11:05;;;;;;;18.75;9.77;;;;;;;22.87;38.25;100962.19;5012447;28;20042;-68
2021/07/27 07:13:34;;;;;;;14.75;9.70;;;;;;;20.88;42.59;100969.63;5013638;28;20048;-69
2021/07/27 07:15:59;;;;;;;15.80;10.10;;;;;;;20.82;42.62;100968.31;4997818;28;20030;-68
2021/07/27 07:18:25;;;;;;;17.02;9.05;;;;;;;19.82;45.23;100967.47;5010385;28;20065;-71
2021/07/27 07:20:53;;;;;;;17.10;9.02;;;;;;;20.36;43.81;100977.34;5012467;28;20034;-69
2021/07/27 07:23:21;;;;;;;12.38;8.95;;;;;;;21.08;42.42;100966.16;5012220;28;20404;-70
2021/07/27 07:25:47;;;;;;;14.88;8.13;;;;;;;22.25;39.40;100976.63;5015879;28;20388;-69
2021/07/27 07:28:15;;;;;;;11.00;7.93;;;;;;;22.83;37.77;100966.13;5009494;28;20037;-70
2021/07/27 07:30:43;;;;;;;13.02;8.93;;;;;;;21.29;40.76;100966.19;5009971;28;20636;-69
2021/07/27 07:33:11;;;;;;;14.23;9.55;;;;;;;21.89;40.29;100971.75;5012955;28;20116;-70
2021/07/27 07:35:41;;;;;;;13.27;8.77;;;;;;;21.74;40.13;100973.06;5012468;28;20030;-70
2021/07/27 07:38:10;;;;;;;15.40;8.23;;;;;;;21.99;40.13;100974.44;5010755;28;20075;-68
2021/07/27 07:40:35;;;;;;;16.85;8.25;;;;;;;24.92;34.04;100966.78;5011130;28;20594;-68
2021/07/27 07:43:02;;;;;;;13.18;8.40;;;;;;;27.20;29.67;100970.66;5013108;28;20087;-69
2021/07/27 07:45:29;;;;;;;12.75;7.93;;;;;;;26.90;30.11;100960.41;5011322;28;20044;-68
2021/07/27 07:47:54;;;;;;;10.45;7.20;;;;;;;25.09;33.29;100962.44;5010707;28;20240;-69
2021/07/27 07:50:22;;;;;;;13.73;7.18;;;;;;;26.80;29.66;100959.72;5012222;28;20112;-69
2021/07/27 07:53:01;;;;;;;9.82;6.93;;;;;;;27.41;28.27;100968.31;5013801;28;20557;-69
2021/07/27 07:55:28;;;;;;;13.43;6.82;;;;;;;28.78;26.87;100965.38;5012105;28;20124;-69
2021/07/27 07:57:54;;;;;;;9.32;6.50;;;;;;;29.87;25.34;100972.09;5013070;28;20069;-70
2021/07/27 08:00:23;;;;;;;11.73;6.70;;;;;;;28.97;27.57;100972.97;5013361;28;20056;-70
2021/07/27 08:02:50;;;;;;;18.23;8.48;;;;;;;25.41;32.59;100983.25;5013427;28;20564;-69
2021/07/27 08:05:16;;;;;;;13.73;9.82;;;;;;;23.47;36.37;100995.84;5012166;28;20038;-69
2021/07/27 08:07:41;;;;;;;13.10;8.13;;;;;;;24.46;34.78;100982.88;5001952;28;20515;-69
2021/07/27 08:10:08;;;;;;;12.63;7.47;;;;;;;23.56;35.03;100987.81;5008669;28;20502;-70
2021/07/27 08:12:34;;;;;;;11.82;7.45;;;;;;;22.61;37.65;100993.00;5008031;28;20033;-70
2021/07/27 08:15:00;;;;;;;12.65;8.13;;;;;;;20.29;41.33;100992.91;5018088;28;20067;-69
2021/07/27 08:17:26;;;;;;;11.52;7.20;;;;;;;22.83;37.61;100999.91;5011240;28;20041;-68
2021/07/27 08:19:51;;;;;;;12.27;7.47;;;;;;;24.97;32.46;100978.75;5009977;28;20097;-69
2021/07/27 08:22:19;;;;;;;7.55;5.75;;;;;;;26.12;31.62;100992.91;5008807;28;20034;-69
2021/07/27 08:24:50;;;;;;;8.80;6.78;;;;;;;27.77;27.91;100988.56;5008127;28;20030;-69
2021/07/27 08:27:15;;;;;;;9.83;5.97;;;;;;;27.04;28.23;100993.78;5008151;28;20065;-69
2021/07/27 08:29:43;;;;;;;9.18;5.95;;;;;;;25.53;30.69;100992.72;5007888;28;20371;-67
2021/07/27 08:32:09;;;;;;;12.95;6.43;;;;;;;26.28;29.46;100989.44;5009867;28;20124;-70
2021/07/27 08:34:41;;;;;;;13.32;6.13;;;;;;;27.15;28.40;101006.06;5008881;28;20503;-70
2021/07/27 08:37:07;;;;;;;9.48;7.13;;;;;;;27.82;27.25;101004.97;5008003;28;20100;-71
2021/07/27 08:39:33;;;;;;;7.38;5.90;;;;;;;27.16;28.83;101004.19;5011140;28;20071;-70
2021/07/27 08:42:03;;;;;;;10.40;6.93;;;;;;;26.03;29.78;101018.75;5011939;28;20344;-69
2021/07/27 08:44:34;;;;;;;11.27;7.13;;;;;;;26.85;29.37;101010.22;5007694;28;20037;-70
2021/07/27 08:47:04;;;;;;;8.68;6.25;;;;;;;25.72;30.46;101013.06;5008310;28;20030;-70
2021/07/27 08:49:32;;;;;;;7.65;6.03;;;;;;;23.24;34.20;101022.81;5009825;28;20049;-69
2021/07/27 08:51:59;;;;;;;8.02;6.03;;;;;;;22.75;35.45;101022.78;5011770;28;20037;-69
2021/07/27 08:54:27;;;;;;;6.80;5.07;;;;;;;24.38;32.13;101028.16;5008619;28;20052;-69
2021/07/27 08:56:53;;;;;;;14.73;5.65;;;;;;;24.96;32.01;101030.47;5008837;28;20046;-70
2021/07/27 08:59:21;;;;;;;9.98;5.60;;;;;;;24.60;33.04;101032.28;5010342;28;20029;-70
2021/07/27 09:01:52;;;;;;;9.93;6.85;;;;;;;23.36;34.92;101048.34;5010276;28;20064;-69
2021/07/27 09:04:29;;;;;;;7.63;5.80;;;;;;;23.38;35.49;101046.38;5011444;28;20044;-69
2021/07/27 09:07:01;;;;;;;9.15;5.90;;;;;;;22.09;35.60;101051.66;5010655;28;20060;-70
2021/07/27 09:09:31;;;;;;;10.05;6.35;;;;;;;22.13;36.67;101048.59;5008583;28;20037;-70
2021/07/27 09:11:57;;;;;;;11.95;6.20;;;;;;;22.55;35.87;101051.16;5020467;28;20162;-70
2021/07/27 09:14:23;;;;;;;14.00;6.55;;;;;;;22.51;36.71;101049.72;5012343;28;20118;-69
2021/07/27 09:16:51;;;;;;;9.73;6.75;;;;;;;22.18;37.01;101046.41;5011244;28;20042;-70
2021/07/27 09:19:17;;;;;;;13.73;8.20;;;;;;;22.71;35.90;101044.50;5012731;28;20048;-69
2021/07/27 09:21:46;;;;;;;16.45;9.88;;;;;;;21.92;36.82;101045.13;5013609;28;20318;-70
2021/07/27 09:24:38;;;;;;;15.82;9.52;;;;;;;23.08;35.84;101054.53;5012503;28;20101;-71
2021/07/27 09:27:06;;;;;;;11.25;7.68;;;;;;;24.23;33.27;101041.97;5024913;28;20450;-68
2021/07/27 09:29:40;;;;;;;11.25;7.38;;;;;;;25.36;31.01;101028.34;5013134;28;20044;-70
2021/07/27 09:32:06;;;;;;;13.55;7.65;;;;;;;24.30;32.79;101036.06;5008876;28;20026;-69
2021/07/27 09:34:32;;;;;;;14.93;8.52;;;;;;;24.17;32.25;101039.09;5010207;28;20397;-70
2021/07/27 09:37:06;;;;;;;14.73;9.23;;;;;;;23.37;34.24;101036.72;5014229;28;20488;-70
2021/07/27 09:39:36;;;;;;;11.40;8.75;;;;;;;23.44;34.72;101039.66;5010743;28;20503;-71
2021/07/27 09:42:07;;;;;;;13.18;8.75;;;;;;;24.20;32.51;101031.59;5012761;28;20038;-70
2021/07/27 09:44:36;;;;;;;12.75;8.55;;;;;;;24.61;32.68;101033.94;5012014;28;20163;-70
2021/07/27 09:47:03;;;;;;;14.00;7.30;;;;;;;26.04;30.87;101017.75;5020524;28;20026;-70
2021/07/27 09:49:31;;;;;;;18.38;9.55;;;;;;;24.55;31.17;101042.56;5013707;28;20045;-69
2021/07/27 09:51:57;;;;;;;10.82;7.85;;;;;;;25.30;30.52;101021.78;5014465;28;20029;-70
2021/07/27 09:54:24;;;;;;;9.65;8.13;;;;;;;25.41;31.23;101026.88;5012908;28;20518;-69
2021/07/27 09:56:51;;;;;;;15.38;8.98;;;;;;;26.24;29.57;101028.25;5014660;28;20017;-70
2021/07/27 09:59:21;;;;;;;13.30;9.40;;;;;;;23.93;32.06;101028.91;5010639;28;20040;-69
2021/07/27 10:01:55;;;;;;;13.80;9.45;;;;;;;24.08;32.98;101032.81;5012711;28;20448;-70
2021/07/27 10:04:23;;;;;;;18.58;10.50;;;;;;;22.13;35.89;101019.31;5014104;28;20091;-71
2021/07/27 10:06:51;;;;;;;14.23;10.00;;;;;;;23.01;34.72;101038.25;5014043;28;20034;-70
2021/07/27 10:09:33;;;;;;;21.73;10.75;;;;;;;24.03;33.58;101024.38;5012979;28;20030;-69
2021/07/27 10:12:32;;;;;;;16.67;10.23;;;;;;;23.70;33.17;101029.22;5028049;28;20049;-70
2021/07/27 10:15:10;;;;;;;16.67;9.57;;;;;;;24.50;31.78;101026.97;5011090;28;20430;-70
2021/07/27 10:17:48;;;;;;;12.63;7.40;;;;;;;24.44;31.29;101011.56;5011527;28;20442;-69
2021/07/27 10:20:22;;;;;;;13.70;9.60;;;;;;;24.63;30.86;101021.28;5011782;28;20033;-69
2021/07/27 10:22:48;;;;;;;12.30;8.63;;;;;;;25.24;30.34;101023.25;5012467;28;20041;-71
2021/07/27 10:25:14;;;;;;;15.57;9.07;;;;;;;25.63;29.56;101020.22;5010392;28;20048;-70
2021/07/27 10:27:53;;;;;;;12.73;8.98;;;;;;;25.39;30.38;101022.69;5013436;28;20026;-72
2021/07/27 10:30:38;;;;;;;14.65;10.18;;;;;;;24.30;32.15;101044.91;5011918;28;20068;-72
2021/07/27 10:33:06;;;;;;;18.77;11.07;;;;;;;22.74;34.63;101037.09;5011455;28;20478;-71
2021/07/27 10:35:33;;;;;;;18.15;11.13;;;;;;;24.04;32.80;101036.75;5018888;28;20034;-71
2021/07/27 10:38:08;;;;;;;11.68;8.75;;;;;;;24.54;32.09;101041.72;5013431;28;20136;-70
2021/07/27 10:40:36;;;;;;;12.63;7.72;;;;;;;25.73;30.34;101033.47;5024374;28;20079;-71
2021/07/27 10:43:07;;;;;;;16.27;9.65;;;;;;;24.21;31.68;101035.13;5013018;28;20064;-70
2021/07/27 10:45:34;;;;;;;12.32;9.18;;;;;;;23.52;33.01;101036.25;5011729;28;20100;-70
2021/07/27 10:47:59;;;;;;;16.65;11.15;;;;;;;23.31;34.00;101029.28;5011637;28;20061;-70
2021/07/27 10:50:27;;;;;;;14.30;8.82;;;;;;;24.24;32.86;101033.00;5010984;28;20080;-70
2021/07/27 10:53:05;;;;;;;16.77;10.05;;;;;;;24.17;32.20;101029.25;5019351;28;20109;-70
2021/07/27 10:55:37;;;;;;;16.70;9.60;;;;;;;24.69;31.69;101025.19;5010106;28;20038;-70
2021/07/27 10:58:06;;;;;;;17.05;11.00;;;;;;;25.56;30.29;101021.00;5011146;28;20541;-70
2021/07/27 11:00:33;;;;;;;24.45;11.77;;;;;;;24.44;31.73;101016.91;5009040;28;20037;-70
2021/07/27 11:02:59;;;;;;;21.02;11.05;;;;;;;25.24;30.80;101017.91;5011843;28;20069;-71
2021/07/27 11:05:25;;;;;;;15.75;10.02;;;;;;;25.78;30.01;101020.47;5013751;28;20068;-71
2021/07/27 11:07:51;;;;;;;17.70;9.73;;;;;;;26.02;29.08;101025.13;5012847;28;20042;-69
2021/07/27 11:10:21;;;;;;;15.90;10.23;;;;;;;26.10;29.09;101020.84;5012437;28;20044;-69
2021/07/27 11:12:46;;;;;;;18.70;10.73;;;;;;;26.29;28.37;101017.91;5028388;28;20025;-70
2021/07/27 11:15:15;;;;;;;14.48;10.15;;;;;;;25.85;28.85;101029.56;5012634;28;20342;-70
2021/07/27 11:17:45;;;;;;;12.10;8.52;;;;;;;26.95;28.03;101023.44;5027002;28;20108;-70
2021/07/27 11:20:20;;;;;;;15.52;9.43;;;;;;;27.76;28.07;101021.78;5010879;28;20517;-70
2021/07/27 11:22:49;;;;;;;14.13;8.80;;;;;;;28.08;25.55;101019.00;5009964;28;20037;-70
2021/07/27 11:25:22;;;;;;;17.42;9.98;;;;;;;27.87;26.55;101024.91;4991726;28;20556;-70
2021/07/27 11:27:49;;;;;;;20.48;10.07;;;;;;;28.34;25.25;101018.75;5015443;28;20052;-70
2021/07/27 11:30:17;;;;;;;17.90;7.88;;;;;;;28.48;25.75;101027.06;5012423;28;20038;-70
2021/07/27 11:32:49;;;;;;;14.48;8.93;;;;;;;27.23;27.23;101030.22;5013294;28;20048;-71
2021/07/27 11:35:17;;;;;;;12.13;9.23;;;;;;;27.72;25.94;101021.28;5006192;28;20329;-70
2021/07/27 11:37:45;;;;;;;17.20;10.32;;;;;;;27.32;27.00;101033.72;5011629;28;20038;-70
2021/07/27 11:40:31;;;;;;;16.92;10.57;;;;;;;25.84;28.89;101027.88;5012394;28;20061;-71